CheckWX is a tool to help pilots better visualize weather data.  It is not intended as a substitute for an official pre-flight weather briefing.

20:28:41 UTC

6B0 METAR
Middlebury State Airport
Middlebury, Vermont, USA
Current

14 mins ago

K6B0 202015Z AUTO 33004KT 10SM OVC004 07/07 A2978 RMK AO2 T00710066
Observed
Apr-20 @ 20:15 UTC
Wind
  • 330° at 4 KTS
Visibility
10 SM
Flight Rules
LIFR
Cloud Levels
  • Overcast at 400' AGL
Temperature
C / 45°F
Dewpoint
C / 45°F
Humidity
100%
Altimeter
29.78" Hg
Pressure
1008.42 hPa
Previous

33 mins ago

K6B0 201956Z AUTO 36004KT 10SM OVC004 07/06 A2980 RMK AO2 T00650059
Observed
Apr-20 @ 19:56 UTC
Wind
  • 360° at 4 KTS
Visibility
10 SM
Flight Rules
LIFR
Cloud Levels
  • Overcast at 400' AGL
Temperature
C / 45°F
Dewpoint
C / 43°F
Humidity
93%
Altimeter
29.8" Hg
Pressure
1009.12 hPa
Previous

34 mins ago

K6B0 201955Z AUTO 35004KT 10SM OVC004 07/06 A2980 RMK AO2 T00660059
Observed
Apr-20 @ 19:55 UTC
Wind
  • 350° at 4 KTS
Visibility
10 SM
Flight Rules
LIFR
Cloud Levels
  • Overcast at 400' AGL
Temperature
C / 45°F
Dewpoint
C / 43°F
Humidity
93%
Altimeter
29.8" Hg
Pressure
1009.12 hPa